TimeCST,TemperatureF,Dew PointF,Humidity,Sea Level PressureIn,VisibilityMPH,Wind Direction,Wind SpeedMPH,Gust SpeedMPH,PrecipitationIn,Events,Conditions,WindDirDegrees,DateUTC
12:53 AM,53.1,52.0,96,30.25,10.0,Calm,Calm,-,N/A,,Clear,0,2012-12-03 06:53:00
1:53 AM,53.1,51.1,93,30.25,10.0,Calm,Calm,-,N/A,,Clear,0,2012-12-03 07:53:00
2:53 AM,51.1,50.0,96,30.25,10.0,Calm,Calm,-,N/A,,Clear,0,2012-12-03 08:53:00
3:41 AM,51.8,50.0,94,30.26,10.0,East,3.5,-,N/A,,Scattered Clouds,100,2012-12-03 09:41:00
3:45 AM,51.8,51.8,100,30.26,10.0,SSE,4.6,-,N/A,,Mostly Cloudy,150,2012-12-03 09:45:00
3:53 AM,51.1,51.1,100,30.26,5.0,Calm,Calm,-,N/A,,Mostly Cloudy,0,2012-12-03 09:53:00
4:16 AM,51.8,50.0,94,30.26,6.0,Calm,Calm,-,N/A,,Mostly Cloudy,0,2012-12-03 10:16:00
4:25 AM,51.8,51.8,100,30.26,9.0,Calm,Calm,-,N/A,,Scattered Clouds,0,2012-12-03 10:25:00
4:53 AM,51.1,50.0,96,30.26,2.0,Calm,Calm,-,N/A,,Clear,0,2012-12-03 10:53:00
5:03 AM,50.0,48.2,94,30.26,6.0,Calm,Calm,-,N/A,,Clear,0,2012-12-03 11:03:00
5:15 AM,50.0,50.0,100,30.27,9.0,Calm,Calm,-,N/A,,Partly Cloudy,0,2012-12-03 11:15:00
5:53 AM,48.9,48.0,97,30.27,10.0,Calm,Calm,-,N/A,,Clear,0,2012-12-03 11:53:00
6:53 AM,50.0,48.0,93,30.29,10.0,Calm,Calm,-,N/A,,Clear,0,2012-12-03 12:53:00
7:53 AM,54.0,53.1,97,30.30,10.0,Calm,Calm,-,N/A,,Mostly Cloudy,0,2012-12-03 13:53:00
9:53 AM,66.9,61.0,81,30.30,10.0,Calm,Calm,-,N/A,,Overcast,0,2012-12-03 15:53:00
10:53 AM,73.0,62.1,68,30.28,10.0,South,4.6,-,N/A,,Overcast,170,2012-12-03 16:53:00
11:53 AM,75.9,57.0,52,30.25,10.0,Variable,3.5,-,N/A,,Mostly Cloudy,0,2012-12-03 17:53:00
12:53 PM,78.1,48.9,36,30.23,10.0,SSE,8.1,-,N/A,,Mostly Cloudy,160,2012-12-03 18:53:00
1:53 PM,77.0,50.0,39,30.21,10.0,East,5.8,-,N/A,,Mostly Cloudy,90,2012-12-03 19:53:00
2:53 PM,77.0,51.1,40,30.21,10.0,ESE,4.6,-,N/A,,Mostly Cloudy,120,2012-12-03 20:53:00
3:53 PM,75.9,52.0,43,30.21,10.0,Calm,Calm,-,N/A,,Mostly Cloudy,0,2012-12-03 21:53:00
4:53 PM,70.0,54.0,57,30.22,10.0,Calm,Calm,-,N/A,,Partly Cloudy,0,2012-12-03 22:53:00
5:53 PM,62.1,55.9,80,30.23,10.0,Calm,Calm,-,N/A,,Clear,0,2012-12-03 23:53:00
6:53 PM,61.0,55.0,81,30.23,10.0,Calm,Calm,-,N/A,,Clear,0,2012-12-04 00:53:00
7:53 PM,59.0,55.0,87,30.25,10.0,Calm,Calm,-,N/A,,Partly Cloudy,0,2012-12-04 01:53:00
8:53 PM,55.9,54.0,93,30.24,10.0,Calm,Calm,-,N/A,,Clear,0,2012-12-04 02:53:00
9:53 PM,55.9,54.0,93,30.24,10.0,Calm,Calm,-,N/A,,Clear,0,2012-12-04 03:53:00
10:53 PM,55.9,54.0,93,30.25,10.0,Calm,Calm,-,N/A,,Clear,0,2012-12-04 04:53:00
11:53 PM,54.0,53.1,97,30.24,10.0,Calm,Calm,-,N/A,,Clear,0,2012-12-04 05:53:00